sensor_id;sensor_type;location;lat;lon;timestamp;pressure;altitude;pressure_sealevel;temperature;humidity
45275;BME280;31019;43.780;25.948;2023-09-18T00:01:28;101676.94;;;16.39;100.00
45275;BME280;31019;43.780;25.948;2023-09-18T00:04:13;101682.59;;;16.31;100.00
45275;BME280;31019;43.780;25.948;2023-09-18T00:06:40;101672.75;;;16.00;100.00
45275;BME280;31019;43.780;25.948;2023-09-18T00:09:07;101683.25;;;15.38;100.00
45275;BME280;31019;43.780;25.948;2023-09-18T00:11:37;101678.84;;;15.89;100.00
45275;BME280;31019;43.780;25.948;2023-09-18T00:14:16;101677.47;;;16.05;100.00
45275;BME280;31019;43.780;25.948;2023-09-18T00:16:43;101672.47;;;15.83;100.00
45275;BME280;31019;43.780;25.948;2023-09-18T00:19:10;101667.50;;;15.87;100.00
45275;BME280;31019;43.780;25.948;2023-09-18T00:21:38;101678.09;;;15.75;100.00
45275;BME280;31019;43.780;25.948;2023-09-18T00:24:08;101674.94;;;15.85;100.00
45275;BME280;31019;43.780;25.948;2023-09-18T00:26:37;101680.78;;;15.75;100.00
45275;BME280;31019;43.780;25.948;2023-09-18T00:29:04;101672.81;;;15.55;100.00
45275;BME280;31019;43.780;25.948;2023-09-18T00:31:44;101681.53;;;15.82;100.00
45275;BME280;31019;43.780;25.948;2023-09-18T00:34:11;101679.19;;;15.61;100.00
45275;BME280;31019;43.780;25.948;2023-09-18T00:36:37;101673.19;;;15.72;100.00
45275;BME280;31019;43.780;25.948;2023-09-18T00:39:04;101674.00;;;15.66;100.00
45275;BME280;31019;43.780;25.948;2023-09-18T00:41:35;101679.56;;;15.71;100.00
45275;BME280;31019;43.780;25.948;2023-09-18T00:44:07;101682.84;;;15.66;100.00
45275;BME280;31019;43.780;25.948;2023-09-18T00:46:35;101675.94;;;15.52;100.00
45275;BME280;31019;43.780;25.948;2023-09-18T00:49:04;101671.25;;;15.47;100.00
45275;BME280;31019;43.780;25.948;2023-09-18T00:51:39;101676.66;;;15.41;100.00
45275;BME280;31019;43.780;25.948;2023-09-18T00:54:07;101678.78;;;15.19;100.00
45275;BME280;31019;43.780;25.948;2023-09-18T00:56:34;101669.75;;;15.20;100.00
45275;BME280;31019;43.780;25.948;2023-09-18T00:59:04;101669.06;;;15.31;100.00
45275;BME280;31019;43.780;25.948;2023-09-18T01:01:40;101669.31;;;15.23;100.00
45275;BME280;31019;43.780;25.948;2023-09-18T01:04:10;101672.31;;;14.95;100.00
45275;BME280;31019;43.780;25.948;2023-09-18T01:06:40;101674.94;;;15.08;100.00
45275;BME280;31019;43.780;25.948;2023-09-18T01:09:08;101677.22;;;15.04;100.00
45275;BME280;31019;43.780;25.948;2023-09-18T01:11:46;101674.09;;;15.14;100.00
45275;BME280;31019;43.780;25.948;2023-09-18T01:14:19;101674.16;;;15.01;100.00
45275;BME280;31019;43.780;25.948;2023-09-18T01:16:50;101673.44;;;14.74;100.00
45275;BME280;31019;43.780;25.948;2023-09-18T01:22:16;101664.59;;;14.66;100.00
45275;BME280;31019;43.780;25.948;2023-09-18T01:24:46;101665.13;;;14.95;100.00
45275;BME280;31019;43.780;25.948;2023-09-18T01:27:16;101664.88;;;15.03;100.00
45275;BME280;31019;43.780;25.948;2023-09-18T01:29:52;101658.56;;;14.84;100.00
45275;BME280;31019;43.780;25.948;2023-09-18T01:32:21;101654.81;;;14.99;100.00
45275;BME280;31019;43.780;25.948;2023-09-18T01:34:54;101651.72;;;15.02;100.00
45275;BME280;31019;43.780;25.948;2023-09-18T01:37:24;101653.31;;;14.64;100.00
45275;BME280;31019;43.780;25.948;2023-09-18T01:39:59;101651.19;;;14.80;100.00
45275;BME280;31019;43.780;25.948;2023-09-18T01:42:26;101662.34;;;14.63;100.00
45275;BME280;31019;43.780;25.948;2023-09-18T01:44:56;101663.56;;;14.48;100.00
45275;BME280;31019;43.780;25.948;2023-09-18T01:47:23;101660.69;;;14.49;100.00
45275;BME280;31019;43.780;25.948;2023-09-18T01:49:52;101662.31;;;14.70;100.00
45275;BME280;31019;43.780;25.948;2023-09-18T01:52:24;101662.31;;;14.77;100.00
45275;BME280;31019;43.780;25.948;2023-09-18T01:54:51;101670.09;;;14.78;100.00
45275;BME280;31019;43.780;25.948;2023-09-18T01:57:19;101672.59;;;14.80;100.00
45275;BME280;31019;43.780;25.948;2023-09-18T01:59:46;101672.81;;;14.72;100.00
45275;BME280;31019;43.780;25.948;2023-09-18T02:02:16;101669.06;;;14.79;100.00
45275;BME280;31019;43.780;25.948;2023-09-18T02:04:43;101675.28;;;14.66;100.00
45275;BME280;31019;43.780;25.948;2023-09-18T02:07:13;101686.38;;;14.77;100.00
45275;BME280;31019;43.780;25.948;2023-09-18T02:09:40;101677.56;;;14.56;100.00
45275;BME280;31019;43.780;25.948;2023-09-18T02:12:07;101683.72;;;14.37;100.00
45275;BME280;31019;43.780;25.948;2023-09-18T02:14:52;101682.72;;;14.25;100.00
45275;BME280;31019;43.780;25.948;2023-09-18T02:17:30;101681.47;;;14.40;100.00
45275;BME280;31019;43.780;25.948;2023-09-18T02:19:57;101681.47;;;14.40;100.00
45275;BME280;31019;43.780;25.948;2023-09-18T02:22:27;101683.72;;;14.37;100.00
45275;BME280;31019;43.780;25.948;2023-09-18T02:24:54;101691.16;;;14.35;100.00
45275;BME280;31019;43.780;25.948;2023-09-18T02:27:21;101685.00;;;14.34;100.00
45275;BME280;31019;43.780;25.948;2023-09-18T02:29:53;101691.56;;;14.52;100.00
45275;BME280;31019;43.780;25.948;2023-09-18T02:32:42;101686.63;;;14.29;100.00
45275;BME280;31019;43.780;25.948;2023-09-18T02:35:09;101692.16;;;14.34;100.00
45275;BME280;31019;43.780;25.948;2023-09-18T02:37:36;101692.19;;;14.40;100.00
45275;BME280;31019;43.780;25.948;2023-09-18T02:40:04;101697.91;;;14.31;100.00
45275;BME280;31019;43.780;25.948;2023-09-18T02:42:35;101698.75;;;14.18;100.00
45275;BME280;31019;43.780;25.948;2023-09-18T02:45:04;101700.00;;;14.22;100.00
45275;BME280;31019;43.780;25.948;2023-09-18T02:47:35;101701.22;;;14.13;100.00
45275;BME280;31019;43.780;25.948;2023-09-18T02:50:03;101713.97;;;14.11;100.00
45275;BME280;31019;43.780;25.948;2023-09-18T02:52:33;101710.03;;;14.07;100.00
45275;BME280;31019;43.780;25.948;2023-09-18T02:55:00;101707.78;;;14.04;100.00
45275;BME280;31019;43.780;25.948;2023-09-18T02:57:27;101706.56;;;14.00;100.00
45275;BME280;31019;43.780;25.948;2023-09-18T02:59:54;101707.59;;;13.98;100.00
45275;BME280;31019;43.780;25.948;2023-09-18T03:02:22;101715.56;;;13.85;100.00
45275;BME280;31019;43.780;25.948;2023-09-18T03:04:49;101716.13;;;13.61;100.00
45275;BME280;31019;43.780;25.948;2023-09-18T03:07:16;101708.94;;;13.55;100.00
45275;BME280;31019;43.780;25.948;2023-09-18T03:09:43;101712.41;;;13.48;100.00
45275;BME280;31019;43.780;25.948;2023-09-18T03:12:10;101719.47;;;13.76;100.00
45275;BME280;31019;43.780;25.948;2023-09-18T03:14:37;101721.84;;;13.03;100.00
45275;BME280;31019;43.780;25.948;2023-09-18T03:17:15;101712.88;;;13.59;100.00
45275;BME280;31019;43.780;25.948;2023-09-18T03:19:43;101719.19;;;13.51;100.00
45275;BME280;31019;43.780;25.948;2023-09-18T03:22:14;101725.81;;;13.62;100.00
45275;BME280;31019;43.780;25.948;2023-09-18T03:24:41;101726.47;;;13.77;100.00
45275;BME280;31019;43.780;25.948;2023-09-18T03:27:08;101730.75;;;13.65;100.00
45275;BME280;31019;43.780;25.948;2023-09-18T03:29:45;101725.41;;;13.65;100.00
45275;BME280;31019;43.780;25.948;2023-09-18T03:32:11;101724.94;;;13.48;100.00
45275;BME280;31019;43.780;25.948;2023-09-18T03:34:40;101730.69;;;13.45;100.00
45275;BME280;31019;43.780;25.948;2023-09-18T03:37:08;101731.50;;;13.45;100.00
45275;BME280;31019;43.780;25.948;2023-09-18T03:39:35;101732.53;;;13.44;100.00
45275;BME280;31019;43.780;25.948;2023-09-18T03:42:02;101740.16;;;13.61;100.00
45275;BME280;31019;43.780;25.948;2023-09-18T03:44:29;101736.66;;;13.54;100.00
45275;BME280;31019;43.780;25.948;2023-09-18T03:46:56;101735.22;;;13.58;100.00
45275;BME280;31019;43.780;25.948;2023-09-18T03:49:23;101736.44;;;13.55;100.00
45275;BME280;31019;43.780;25.948;2023-09-18T03:51:50;101739.53;;;13.52;100.00
45275;BME280;31019;43.780;25.948;2023-09-18T03:54:18;101733.97;;;13.47;100.00
45275;BME280;31019;43.780;25.948;2023-09-18T03:56:45;101751.47;;;13.21;100.00
45275;BME280;31019;43.780;25.948;2023-09-18T03:59:12;101742.81;;;13.13;100.00
45275;BME280;31019;43.780;25.948;2023-09-18T04:01:39;101751.22;;;13.44;100.00
45275;BME280;31019;43.780;25.948;2023-09-18T04:04:06;101756.72;;;13.43;100.00
45275;BME280;31019;43.780;25.948;2023-09-18T04:06:37;101758.19;;;13.52;100.00
45275;BME280;31019;43.780;25.948;2023-09-18T04:09:04;101754.44;;;13.33;100.00
45275;BME280;31019;43.780;25.948;2023-09-18T04:11:33;101761.53;;;12.84;100.00
45275;BME280;31019;43.780;25.948;2023-09-18T04:14:07;101758.72;;;20.45;100.00
45275;BME280;31019;43.780;25.948;2023-09-18T04:16:37;101753.66;;;14.54;100.00
45275;BME280;31019;43.780;25.948;2023-09-18T04:19:08;101754.13;;;13.56;100.00
45275;BME280;31019;43.780;25.948;2023-09-18T04:21:38;101757.38;;;13.45;100.00
45275;BME280;31019;43.780;25.948;2023-09-18T04:24:05;101756.91;;;13.35;100.00
45275;BME280;31019;43.780;25.948;2023-09-18T04:26:33;101749.75;;;13.07;100.00
45275;BME280;31019;43.780;25.948;2023-09-18T04:29:00;101756.47;;;13.31;100.00
45275;BME280;31019;43.780;25.948;2023-09-18T04:31:27;101762.88;;;13.43;100.00
45275;BME280;31019;43.780;25.948;2023-09-18T04:33:55;101760.59;;;13.34;100.00
45275;BME280;31019;43.780;25.948;2023-09-18T04:36:22;101764.28;;;13.33;100.00
45275;BME280;31019;43.780;25.948;2023-09-18T04:38:49;101761.25;;;13.42;100.00
45275;BME280;31019;43.780;25.948;2023-09-18T04:41:16;101767.22;;;13.44;100.00
45275;BME280;31019;43.780;25.948;2023-09-18T04:43:44;101757.72;;;13.00;100.00
45275;BME280;31019;43.780;25.948;2023-09-18T04:46:11;101768.44;;;12.72;100.00
45275;BME280;31019;43.780;25.948;2023-09-18T04:48:38;101777.59;;;12.98;100.00
45275;BME280;31019;43.780;25.948;2023-09-18T04:51:05;101773.34;;;13.32;100.00
45275;BME280;31019;43.780;25.948;2023-09-18T04:53:32;101766.25;;;13.59;100.00
45275;BME280;31019;43.780;25.948;2023-09-18T04:55:59;101772.53;;;14.19;100.00
45275;BME280;31019;43.780;25.948;2023-09-18T04:58:26;101777.91;;;14.32;100.00
45275;BME280;31019;43.780;25.948;2023-09-18T05:00:55;101762.66;;;14.46;100.00
45275;BME280;31019;43.780;25.948;2023-09-18T05:03:22;101764.56;;;14.65;100.00
45275;BME280;31019;43.780;25.948;2023-09-18T05:05:49;101763.94;;;14.77;100.00
45275;BME280;31019;43.780;25.948;2023-09-18T05:08:16;101763.25;;;14.95;100.00
45275;BME280;31019;43.780;25.948;2023-09-18T05:10:43;101755.81;;;15.10;100.00
45275;BME280;31019;43.780;25.948;2023-09-18T05:13:11;101757.66;;;15.09;100.00
45275;BME280;31019;43.780;25.948;2023-09-18T05:15:38;101755.72;;;15.37;100.00
45275;BME280;31019;43.780;25.948;2023-09-18T05:18:08;101759.78;;;15.52;100.00
45275;BME280;31019;43.780;25.948;2023-09-18T05:20:35;101751.31;;;15.55;100.00
45275;BME280;31019;43.780;25.948;2023-09-18T05:23:03;101753.31;;;15.73;100.00
45275;BME280;31019;43.780;25.948;2023-09-18T05:25:35;101759.78;;;15.52;100.00
45275;BME280;31019;43.780;25.948;2023-09-18T05:28:04;101753.75;;;15.70;100.00
45275;BME280;31019;43.780;25.948;2023-09-18T05:30:32;101758.78;;;15.92;100.00
45275;BME280;31019;43.780;25.948;2023-09-18T05:33:00;101756.03;;;15.98;100.00
45275;BME280;31019;43.780;25.948;2023-09-18T05:35:31;101764.97;;;16.17;100.00
45275;BME280;31019;43.780;25.948;2023-09-18T05:37:58;101754.25;;;16.42;100.00
45275;BME280;31019;43.780;25.948;2023-09-18T05:40:27;101750.53;;;16.43;100.00
45275;BME280;31019;43.780;25.948;2023-09-18T05:42:55;101756.53;;;16.89;100.00
45275;BME280;31019;43.780;25.948;2023-09-18T05:45:22;101763.41;;;17.22;100.00
45275;BME280;31019;43.780;25.948;2023-09-18T05:47:51;101757.59;;;17.55;100.00
45275;BME280;31019;43.780;25.948;2023-09-18T05:50:19;101756.50;;;17.74;100.00
45275;BME280;31019;43.780;25.948;2023-09-18T05:52:47;101757.84;;;17.83;100.00
45275;BME280;31019;43.780;25.948;2023-09-18T05:55:15;101757.28;;;17.93;100.00
45275;BME280;31019;43.780;25.948;2023-09-18T05:57:42;101756.22;;;17.82;100.00
45275;BME280;31019;43.780;25.948;2023-09-18T06:00:09;101762.59;;;18.12;100.00
45275;BME280;31019;43.780;25.948;2023-09-18T06:02:38;101766.59;;;18.21;100.00
45275;BME280;31019;43.780;25.948;2023-09-18T06:05:06;101769.25;;;18.09;100.00
45275;BME280;31019;43.780;25.948;2023-09-18T06:07:36;101767.59;;;18.73;100.00
45275;BME280;31019;43.780;25.948;2023-09-18T06:10:06;101758.63;;;19.20;100.00
45275;BME280;31019;43.780;25.948;2023-09-18T06:12:33;101764.22;;;19.30;100.00
45275;BME280;31019;43.780;25.948;2023-09-18T06:15:00;101764.28;;;19.47;100.00
45275;BME280;31019;43.780;25.948;2023-09-18T06:17:27;101770.38;;;19.83;100.00
45275;BME280;31019;43.780;25.948;2023-09-18T06:19:54;101759.31;;;20.13;100.00
45275;BME280;31019;43.780;25.948;2023-09-18T06:22:21;101757.59;;;20.41;100.00
45275;BME280;31019;43.780;25.948;2023-09-18T06:24:47;101767.91;;;20.61;100.00
45275;BME280;31019;43.780;25.948;2023-09-18T06:27:16;101757.09;;;20.27;100.00
45275;BME280;31019;43.780;25.948;2023-09-18T06:29:44;101763.38;;;20.32;100.00
45275;BME280;31019;43.780;25.948;2023-09-18T06:32:16;101771.16;;;20.79;100.00
45275;BME280;31019;43.780;25.948;2023-09-18T06:34:43;101765.63;;;20.52;100.00
45275;BME280;31019;43.780;25.948;2023-09-18T06:37:10;101763.97;;;20.68;100.00
45275;BME280;31019;43.780;25.948;2023-09-18T06:39:44;101759.69;;;20.72;100.00
45275;BME280;31019;43.780;25.948;2023-09-18T06:42:11;101747.94;;;20.62;100.00
45275;BME280;31019;43.780;25.948;2023-09-18T06:44:40;101748.28;;;20.87;100.00
45275;BME280;31019;43.780;25.948;2023-09-18T06:47:07;101762.25;;;21.01;100.00
45275;BME280;31019;43.780;25.948;2023-09-18T06:49:35;101765.03;;;21.06;100.00
45275;BME280;31019;43.780;25.948;2023-09-18T06:52:03;101757.03;;;21.16;100.00
45275;BME280;31019;43.780;25.948;2023-09-18T06:54:30;101760.31;;;21.18;100.00
45275;BME280;31019;43.780;25.948;2023-09-18T06:56:57;101753.09;;;21.46;100.00
45275;BME280;31019;43.780;25.948;2023-09-18T06:59:24;101749.00;;;21.43;100.00
45275;BME280;31019;43.780;25.948;2023-09-18T07:01:52;101752.94;;;21.85;100.00
45275;BME280;31019;43.780;25.948;2023-09-18T07:04:20;101745.22;;;21.99;100.00
45275;BME280;31019;43.780;25.948;2023-09-18T07:06:47;101760.91;;;22.29;100.00
45275;BME280;31019;43.780;25.948;2023-09-18T07:09:18;101757.47;;;22.06;100.00
45275;BME280;31019;43.780;25.948;2023-09-18T07:11:48;101756.25;;;22.19;100.00
45275;BME280;31019;43.780;25.948;2023-09-18T07:14:14;101761.59;;;22.46;100.00
45275;BME280;31019;43.780;25.948;2023-09-18T07:16:41;101764.09;;;22.58;100.00
45275;BME280;31019;43.780;25.948;2023-09-18T07:19:09;101755.31;;;22.83;100.00
45275;BME280;31019;43.780;25.948;2023-09-18T07:21:37;101753.63;;;23.24;100.00
45275;BME280;31019;43.780;25.948;2023-09-18T07:24:06;101750.53;;;22.95;100.00
45275;BME280;31019;43.780;25.948;2023-09-18T07:26:33;101749.22;;;23.08;100.00
45275;BME280;31019;43.780;25.948;2023-09-18T07:29:00;101746.28;;;23.20;100.00
45275;BME280;31019;43.780;25.948;2023-09-18T07:31:27;101747.13;;;23.36;100.00
45275;BME280;31019;43.780;25.948;2023-09-18T07:33:53;101747.16;;;23.30;100.00
45275;BME280;31019;43.780;25.948;2023-09-18T07:36:22;101753.66;;;23.35;100.00
45275;BME280;31019;43.780;25.948;2023-09-18T07:38:49;101748.06;;;23.87;100.00
45275;BME280;31019;43.780;25.948;2023-09-18T07:41:15;101747.28;;;23.82;100.00
45275;BME280;31019;43.780;25.948;2023-09-18T07:43:42;101754.88;;;24.10;100.00
45275;BME280;31019;43.780;25.948;2023-09-18T07:46:09;101746.19;;;24.03;100.00
45275;BME280;31019;43.780;25.948;2023-09-18T07:48:36;101741.81;;;24.38;100.00
45275;BME280;31019;43.780;25.948;2023-09-18T07:51:03;101744.56;;;24.22;100.00
45275;BME280;31019;43.780;25.948;2023-09-18T07:53:32;101746.97;;;24.60;100.00
45275;BME280;31019;43.780;25.948;2023-09-18T07:55:59;101761.59;;;24.84;100.00
45275;BME280;31019;43.780;25.948;2023-09-18T07:58:27;101746.75;;;25.26;100.00
45275;BME280;31019;43.780;25.948;2023-09-18T08:00:54;101748.97;;;25.14;100.00
45275;BME280;31019;43.780;25.948;2023-09-18T08:03:22;101751.88;;;25.33;100.00
45275;BME280;31019;43.780;25.948;2023-09-18T08:05:50;101748.06;;;25.34;100.00
45275;BME280;31019;43.780;25.948;2023-09-18T08:08:24;101750.53;;;25.30;100.00
45275;BME280;31019;43.780;25.948;2023-09-18T08:10:53;101748.44;;;25.62;100.00
45275;BME280;31019;43.780;25.948;2023-09-18T08:13:20;101733.03;;;25.91;100.00
45275;BME280;31019;43.780;25.948;2023-09-18T08:15:48;101747.91;;;25.99;100.00
45275;BME280;31019;43.780;25.948;2023-09-18T08:18:19;101746.22;;;26.37;100.00
45275;BME280;31019;43.780;25.948;2023-09-18T08:20:46;101741.31;;;26.39;100.00
45275;BME280;31019;43.780;25.948;2023-09-18T08:23:13;101733.66;;;26.12;100.00
45275;BME280;31019;43.780;25.948;2023-09-18T08:25:40;101730.88;;;26.46;100.00
45275;BME280;31019;43.780;25.948;2023-09-18T08:28:08;101740.31;;;26.30;100.00
45275;BME280;31019;43.780;25.948;2023-09-18T08:30:36;101725.44;;;25.88;100.00
45275;BME280;31019;43.780;25.948;2023-09-18T08:33:06;101709.91;;;26.71;100.00
45275;BME280;31019;43.780;25.948;2023-09-18T08:35:32;101728.75;;;26.67;100.00
45275;BME280;31019;43.780;25.948;2023-09-18T08:38:00;101723.69;;;27.04;100.00
45275;BME280;31019;43.780;25.948;2023-09-18T08:40:28;101733.41;;;26.67;100.00
45275;BME280;31019;43.780;25.948;2023-09-18T08:42:55;101721.94;;;26.41;100.00
45275;BME280;31019;43.780;25.948;2023-09-18T08:45:31;101718.63;;;26.49;100.00
45275;BME280;31019;43.780;25.948;2023-09-18T08:48:00;101722.44;;;26.48;100.00
45275;BME280;31019;43.780;25.948;2023-09-18T08:50:28;101721.69;;;26.66;100.00
45275;BME280;31019;43.780;25.948;2023-09-18T08:52:56;101719.16;;;26.51;100.00
45275;BME280;31019;43.780;25.948;2023-09-18T08:55:24;101713.72;;;26.46;100.00
45275;BME280;31019;43.780;25.948;2023-09-18T08:57:52;101707.72;;;26.49;100.00
45275;BME280;31019;43.780;25.948;2023-09-18T09:00:20;101694.03;;;27.21;100.00
45275;BME280;31019;43.780;25.948;2023-09-18T09:02:49;101707.50;;;27.12;100.00
45275;BME280;31019;43.780;25.948;2023-09-18T09:05:18;101708.28;;;27.13;100.00
45275;BME280;31019;43.780;25.948;2023-09-18T09:07:45;101716.59;;;27.46;100.00
45275;BME280;31019;43.780;25.948;2023-09-18T09:10:11;101693.72;;;27.60;100.00
45275;BME280;31019;43.780;25.948;2023-09-18T09:12:51;101695.59;;;27.27;100.00
45275;BME280;31019;43.780;25.948;2023-09-18T09:15:19;101686.63;;;28.25;100.00
45275;BME280;31019;43.780;25.948;2023-09-18T09:17:46;101688.19;;;29.22;100.00
45275;BME280;31019;43.780;25.948;2023-09-18T09:20:15;101680.13;;;28.07;100.00
45275;BME280;31019;43.780;25.948;2023-09-18T09:22:44;101675.50;;;27.56;100.00
45275;BME280;31019;43.780;25.948;2023-09-18T09:25:25;101679.00;;;27.75;100.00
45275;BME280;31019;43.780;25.948;2023-09-18T09:27:57;101682.69;;;27.33;100.00
45275;BME280;31019;43.780;25.948;2023-09-18T09:30:26;101685.91;;;27.54;100.00
45275;BME280;31019;43.780;25.948;2023-09-18T09:32:54;101684.13;;;27.63;100.00
45275;BME280;31019;43.780;25.948;2023-09-18T09:35:24;101671.81;;;27.09;100.00
45275;BME280;31019;43.780;25.948;2023-09-18T09:37:54;101679.81;;;26.33;100.00
45275;BME280;31019;43.780;25.948;2023-09-18T09:40:23;101679.31;;;26.55;100.00
45275;BME280;31019;43.780;25.948;2023-09-18T09:42:57;101668.44;;;27.17;100.00
45275;BME280;31019;43.780;25.948;2023-09-18T09:45:28;101670.50;;;27.06;100.00
45275;BME280;31019;43.780;25.948;2023-09-18T09:47:57;101651.22;;;27.22;100.00
45275;BME280;31019;43.780;25.948;2023-09-18T09:50:25;101647.03;;;26.86;100.00
45275;BME280;31019;43.780;25.948;2023-09-18T09:52:54;101658.72;;;27.49;100.00
45275;BME280;31019;43.780;25.948;2023-09-18T09:55:23;101652.78;;;27.79;100.00
45275;BME280;31019;43.780;25.948;2023-09-18T09:57:52;101655.41;;;28.45;100.00
45275;BME280;31019;43.780;25.948;2023-09-18T10:00:23;101648.13;;;28.54;100.00
45275;BME280;31019;43.780;25.948;2023-09-18T10:03:00;101660.25;;;27.55;100.00
45275;BME280;31019;43.780;25.948;2023-09-18T10:05:31;101651.88;;;27.65;100.00
45275;BME280;31019;43.780;25.948;2023-09-18T10:07:58;101639.84;;;27.85;100.00
45275;BME280;31019;43.780;25.948;2023-09-18T10:10:30;101643.00;;;28.20;99.01
45275;BME280;31019;43.780;25.948;2023-09-18T10:13:01;101649.88;;;27.38;100.00
45275;BME280;31019;43.780;25.948;2023-09-18T10:15:32;101634.38;;;27.85;100.00
45275;BME280;31019;43.780;25.948;2023-09-18T10:18:05;101629.78;;;28.41;98.12
45275;BME280;31019;43.780;25.948;2023-09-18T10:20:39;101632.03;;;28.89;90.22
45275;BME280;31019;43.780;25.948;2023-09-18T10:23:23;101631.06;;;27.88;100.00
45275;BME280;31019;43.780;25.948;2023-09-18T10:25:55;101618.16;;;28.21;100.00
45275;BME280;31019;43.780;25.948;2023-09-18T10:28:29;101618.44;;;29.34;100.00
45275;BME280;31019;43.780;25.948;2023-09-18T10:30:57;101612.03;;;29.92;94.85
45275;BME280;31019;43.780;25.948;2023-09-18T10:33:33;101617.22;;;29.17;100.00
45275;BME280;31019;43.780;25.948;2023-09-18T10:36:02;101615.84;;;29.06;92.98
45275;BME280;31019;43.780;25.948;2023-09-18T10:38:30;101617.94;;;29.09;100.00
45275;BME280;31019;43.780;25.948;2023-09-18T10:40:57;101618.00;;;28.82;100.00
45275;BME280;31019;43.780;25.948;2023-09-18T10:43:25;101608.94;;;28.17;100.00
45275;BME280;31019;43.780;25.948;2023-09-18T10:45:52;101608.81;;;28.64;100.00
45275;BME280;31019;43.780;25.948;2023-09-18T10:48:20;101601.34;;;29.06;100.00
45275;BME280;31019;43.780;25.948;2023-09-18T10:50:49;101610.09;;;29.16;97.46
45275;BME280;31019;43.780;25.948;2023-09-18T10:53:19;101606.44;;;28.48;95.89
45275;BME280;31019;43.780;25.948;2023-09-18T10:55:48;101609.44;;;27.59;100.00
45275;BME280;31019;43.780;25.948;2023-09-18T10:58:23;101598.22;;;27.93;100.00
45275;BME280;31019;43.780;25.948;2023-09-18T11:00:59;101592.31;;;28.69;99.54
45275;BME280;31019;43.780;25.948;2023-09-18T11:03:28;101586.44;;;29.12;100.00
45275;BME280;31019;43.780;25.948;2023-09-18T11:06:05;101586.50;;;29.65;91.20
45275;BME280;31019;43.780;25.948;2023-09-18T11:08:43;101575.88;;;30.78;78.54
45275;BME280;31019;43.780;25.948;2023-09-18T11:11:12;101599.19;;;30.50;75.72
45275;BME280;31019;43.780;25.948;2023-09-18T11:13:41;101582.41;;;30.34;83.40
45275;BME280;31019;43.780;25.948;2023-09-18T11:16:32;101564.78;;;30.84;83.43
45275;BME280;31019;43.780;25.948;2023-09-18T11:19:12;101565.56;;;31.75;75.96
45275;BME280;31019;43.780;25.948;2023-09-18T11:21:39;101566.69;;;30.83;67.56
45275;BME280;31019;43.780;25.948;2023-09-18T11:24:15;101575.47;;;30.28;75.54
45275;BME280;31019;43.780;25.948;2023-09-18T11:26:44;101561.69;;;29.71;81.08
45275;BME280;31019;43.780;25.948;2023-09-18T11:29:14;101571.63;;;28.76;88.28
45275;BME280;31019;43.780;25.948;2023-09-18T11:31:44;101568.09;;;28.76;100.00
45275;BME280;31019;43.780;25.948;2023-09-18T11:34:14;101579.97;;;29.08;100.00
45275;BME280;31019;43.780;25.948;2023-09-18T11:36:42;101580.59;;;28.54;92.16
45275;BME280;31019;43.780;25.948;2023-09-18T11:39:10;101571.31;;;28.28;88.14
45275;BME280;31019;43.780;25.948;2023-09-18T11:41:37;101564.09;;;28.32;88.81
45275;BME280;31019;43.780;25.948;2023-09-18T11:44:32;101580.84;;;27.70;93.31
45275;BME280;31019;43.780;25.948;2023-09-18T11:47:02;101563.75;;;26.99;100.00
45275;BME280;31019;43.780;25.948;2023-09-18T11:49:35;101559.44;;;27.31;100.00
45275;BME280;31019;43.780;25.948;2023-09-18T11:52:09;101554.81;;;28.33;95.55
45275;BME280;31019;43.780;25.948;2023-09-18T11:54:41;101545.69;;;28.88;95.07
45275;BME280;31019;43.780;25.948;2023-09-18T11:57:08;101544.56;;;29.56;79.26
45275;BME280;31019;43.780;25.948;2023-09-18T11:59:39;101534.75;;;31.05;65.46
45275;BME280;31019;43.780;25.948;2023-09-18T12:02:08;101540.84;;;31.10;61.62
45275;BME280;31019;43.780;25.948;2023-09-18T12:04:35;101545.75;;;29.64;81.85
45275;BME280;31019;43.780;25.948;2023-09-18T12:07:04;101542.38;;;29.67;77.72
45275;BME280;31019;43.780;25.948;2023-09-18T12:09:41;101543.97;;;28.56;80.98
45275;BME280;31019;43.780;25.948;2023-09-18T12:12:08;101529.34;;;28.10;77.90
45275;BME280;31019;43.780;25.948;2023-09-18T12:14:46;101533.69;;;29.42;66.16
45275;BME280;31019;43.780;25.948;2023-09-18T12:17:16;101515.06;;;30.85;63.91
45275;BME280;31019;43.780;25.948;2023-09-18T12:19:53;101519.09;;;30.44;67.14
45275;BME280;31019;43.780;25.948;2023-09-18T12:22:26;101522.25;;;31.33;66.56
45275;BME280;31019;43.780;25.948;2023-09-18T12:25:08;101517.16;;;30.97;61.48
45275;BME280;31019;43.780;25.948;2023-09-18T12:27:41;101518.22;;;31.31;56.12
45275;BME280;31019;43.780;25.948;2023-09-18T12:30:09;101512.63;;;31.10;54.75
45275;BME280;31019;43.780;25.948;2023-09-18T12:32:42;101514.91;;;30.99;59.77
45275;BME280;31019;43.780;25.948;2023-09-18T12:35:09;101520.84;;;30.40;60.05
45275;BME280;31019;43.780;25.948;2023-09-18T12:37:39;101504.50;;;31.22;58.35
45275;BME280;31019;43.780;25.948;2023-09-18T12:40:20;101510.16;;;31.34;54.59
45275;BME280;31019;43.780;25.948;2023-09-18T12:42:47;101502.72;;;31.73;55.21
45275;BME280;31019;43.780;25.948;2023-09-18T12:45:15;101506.06;;;32.17;48.62